Historyczne dane pomiarowe

Dodano dane terminowe – wersja testowa.

Dane z okresu 1951-2019

Wersja bazy: 1.34 [2019-03-16, lista zmian], aktualizacja planowana na 2019-04-15

Dane meteo z obszaru Polski uzyskane na podstawie danych udostępnionych przez Instytut Meteorologii i Gospodarki Wodnej – Państwowy Instytut Badawczy.

 

Wybierz Datę:    

       

TemperaturaWilgotnośćWiatrCiśnienieOpadyŚniegCzas trwania zjawisk
 Stacja t tx tn tng RH VA  wxwx mslp ppp RRR   cm mm wxwxwxwxwxwxwx
1961-08-14 14.3 19.3 8.1--- 2.0 0.7---- 0.0------------
1961-08-13 13.9 17.6 13.0--- 4.0 4.0---- 0.0------------
1961-08-12 16.9 21.6 14.7--- 7.3 0.0---- 9.7------------
1961-08-11 18.6 23.6 17.1--- 8.0 1.3---- 5.3------------
1961-08-10 23.5 28.0 17.9--- 5.0 1.0---- 9.6------------
1961-08-09 21.6 27.8 14.9--- 4.0 1.3---- 3.5------------
1961-08-08 18.5 23.5 11.6--- 3.3 1.0---- 0.0------------
1961-08-07 18.5 23.8 13.1--- 7.0 0.7---- 5.1------------
1961-08-06 24.2 30.7 15.1--- 0.3 2.7---- 0.0------------
1961-08-05 18.3 24.5 14.5--- 2.3 2.7---- 0.0------------
1961-08-04 15.9 19.6 8.1--- 5.0 1.7---- 0.0------------
1961-08-03 14.7 19.5 12.7--- 5.3 2.3---- 0.0------------
1961-08-02 18.2 26.0 9.7--- 4.3 1.3---- 3.7------------
1961-08-01 14.2 20.0 11.7--- 3.7 8.7---- 0.2------------
1961-07-31 12.9 14.1 12.1--- 8.0 6.3---- 62.3------------
1961-07-30 13.7 17.1 9.6--- 8.0 1.7---- 30.2------------
1961-07-29 14.3 18.3 11.6--- 6.7 4.3---- 0.2------------
1961-07-28 15.8 20.0 14.5--- 7.3 2.7---- 31.2------------
1961-07-27 19.0 26.0 14.8--- 5.0 4.3---- 0.8------------
1961-07-26 17.1 23.0 10.5--- 6.7 3.0---- 0.0------------
1961-07-25 13.9 17.1 11.6--- 6.3 3.3---- 0.0------------
1961-07-24 13.2 15.6 11.1--- 7.3 3.7---- 0.0------------
1961-07-23 14.9 18.7 10.6--- 6.3 5.0---- 0.0------------
1961-07-22 14.5 19.3 13.1--- 6.0 4.7---- 6.1------------
1961-07-21 15.4 18.7 12.6--- 8.0 7.3---- 1.0------------
1961-07-20 16.0 21.2 8.7--- 3.0 1.0---- 0.4------------
1961-07-19 14.1 19.6 11.5--- 5.3 1.7---- 1.4------------
1961-07-18 14.4 19.6 11.3--- 5.3 4.0---- 2.1------------
1961-07-17 14.4 21.2 10.3--- 4.0 4.3---- 8.2------------
1961-07-16 15.8 20.5 12.5--- 5.7 3.3---- 1.2------------
1961-07-15 17.2 23.6 11.8--- 4.7 2.7---- 18.6------------
1961-07-14 13.8 19.1 12.6--- 3.0 4.3---- 0.0------------
1961-07-13 20.5 28.0 16.1--- 4.0 4.0---- 7.6------------
1961-07-12 21.3 28.4 13.1--- 2.0 1.3---- 0.0------------
1961-07-11 15.4 21.6 8.3--- 3.3 3.3---- 9.1------------
1961-07-10 11.9 18.1 9.0--- 3.7 3.3---- 0.0------------
1961-07-09 13.4 18.1 8.6--- 5.7 4.0---- 1.0------------
1961-07-08 15.6 22.2 7.1--- 1.3 2.0---- 0.0------------
1961-07-07 13.0 17.7 9.7--- 3.3 3.3---- 0.0------------
1961-07-06 11.5 14.7 6.7--- 6.3 3.7---- 1.0------------
1961-07-05 13.4 19.1 11.3--- 3.7 8.0---- 0.0------------
1961-07-04 18.3 25.6 14.6--- 5.0 2.0---- 2.1------------
1961-07-03 25.3 32.5 13.1--- 1.3 2.3---- 0.0------------
1961-07-02 22.3 30.4 12.3--- 0.0 0.3---- 0.0------------
1961-07-01 20.5 28.2 10.6--- 0.0 1.0---- 0.0------------
1961-06-30 19.2 26.0 9.6--- 1.0 1.0---- 0.0------------
1961-06-29 15.2 21.2 9.3--- 1.0 3.3---- 0.0------------
1961-06-28 12.9 20.2 10.4--- 2.3 7.0---- 0.0------------
1961-06-27 23.3 31.3 16.0--- 3.3 1.7---- 7.2------------
1961-06-26 22.5 29.5 14.8--- 1.3 1.0---- 0.0------------
1961-06-25 22.1 29.0 13.9--- 0.0 3.0---- 0.0------------
1961-06-24 18.8 23.0 11.6--- 2.0 4.7---- 0.0------------
1961-06-23 16.7 23.0 13.6--- 3.0 3.7---- 0.0------------
1961-06-22 18.8 24.0 6.1--- 4.0 2.0---- 5.4------------
1961-06-21 16.2 23.6 6.5--- 1.3 2.0---- 0.0------------
1961-06-20 13.5 20.8 8.6--- 0.7 1.7---- 0.0------------
1961-06-19 14.6 21.2 12.1--- 4.7 1.0---- 1.0------------
1961-06-18 20.8 27.0 10.7--- 0.0 1.7---- 0.0------------
1961-06-17 16.9 23.0 7.5--- 1.3 3.7---- 0.0------------
1961-06-16 13.2 17.7 8.1--- 2.7 4.7---- 0.0------------
308.4 ms

 

Źródłem pochodzenia danych jest Instytut Meteorologii i Gospodarki Wodnej – Państwowy Instytut Badawczy. Dane Instytutu Meteorologii i Gospodarki Wodnej – Państwowego Instytutu Badawczego zostały przetworzone.

Dane źródłowe można odnaleźć na stronie https://dane.imgw.pl